This is the latest recevied weather packets stored in our database for station/object HS6TUX-4. If no packets are shown the sender has not sent any weather packets the latest 1 day(s).
| Time | Temp. | Humidity | Pressure | Rain* | Wind** | Luminosity | Snow |
|---|---|---|---|---|---|---|---|
| 1836274652 | 42.78° C | 99% | 999 hPa | - | 0 m/s | 240 W/m² | - |
| 1778031901 | 42.78° C | 99% | 742 hPa | - | 0 m/s | 158 W/m² | - |
| 1778030972 | 37.78° C | 99% | 736 hPa | - | 0 m/s | 124 W/m² | - |
| 1778030044 | 33.89° C | 99% | 732 hPa | - | 0 m/s | 93 W/m² | - |
| 1778029115 | 36.67° C | 99% | 735 hPa | - | 0 m/s | 81 W/m² | - |
| 1778028187 | 32.22° C | 99% | 730 hPa | - | 0 m/s | 58 W/m² | - |
| 1778027259 | 32.78° C | 99% | 731 hPa | - | 0 m/s | 50 W/m² | - |
| 1778026330 | 32.22° C | 99% | 730 hPa | - | 0 m/s | 39 W/m² | - |
| 1778025401 | 30° C | 99% | 727 hPa | - | 0 m/s | 27 W/m² | - |
| 1778024473 | 27.78° C | 99% | 725 hPa | - | 0 m/s | 15 W/m² | - |
| 1778023545 | 27.22° C | 99% | 724 hPa | - | 0 m/s | 9 W/m² | - |
| 1778022616 | 26.67° C | 99% | 723 hPa | - | 0 m/s | 4 W/m² | - |
| 1778021688 | 26.67° C | 99% | 724 hPa | - | 0 m/s | 1 W/m² | - |
| 1778020760 | 26.67° C | 99% | 724 hPa | - | 0 m/s | 0 W/m² | - |
| 1778019831 | 26.67° C | 99% | 723 hPa | - | 0 m/s | 0 W/m² | - |
| 1778018903 | 26.11° C | 99% | 723 hPa | - | 0 m/s | 0 W/m² | - |
| 1778017974 | 26.67° C | 99% | 723 hPa | - | 0 m/s | 0 W/m² | - |
| 1778017046 | 26.67° C | 99% | 724 hPa | - | 0 m/s | 0 W/m² | - |
| 1778016117 | 26.67° C | 99% | 724 hPa | - | 0 m/s | 0 W/m² | - |
| 1778015189 | 26.67° C | 99% | 724 hPa | - | 0 m/s | 0 W/m² | - |
| 1778014260 | 26.67° C | 99% | 724 hPa | - | 0 m/s | 0 W/m² | - |
| 1778013332 | 27.22° C | 99% | 724 hPa | - | 0 m/s | 0 W/m² | - |
| 1778012404 | 27.22° C | 99% | 724 hPa | - | 0 m/s | 0 W/m² | - |
| 1778011475 | 27.22° C | 99% | 724 hPa | - | 0 m/s | 0 W/m² | - |
| 1778010547 | 27.22° C | 99% | 724 hPa | - | 0 m/s | 0 W/m² | - |
* Rain since midnight (hover to see other rain measurements)
** Current wind speed in m/s (hover to see current wind gust speed)